createdAt,value
2022-12-11T14:40:26.488Z,-1.36
2022-12-11T14:43:00.296Z,-1.35
2022-12-11T14:45:34.991Z,-1.35
2022-12-11T14:48:06.436Z,-1.40
2022-12-11T14:50:39.359Z,-1.36
2022-12-11T14:53:14.700Z,-1.50
2022-12-11T14:55:45.196Z,-1.53
2022-12-11T14:58:17.442Z,-1.58
2022-12-11T15:00:46.408Z,-1.58
2022-12-11T15:03:24.701Z,-1.65
2022-12-11T15:05:54.779Z,-1.58
2022-12-11T15:08:27.870Z,-1.52
2022-12-11T15:11:03.969Z,-1.59
2022-12-11T15:13:32.745Z,-1.66
2022-12-11T15:16:01.684Z,-1.65
2022-12-11T15:18:33.036Z,-1.64
2022-12-11T15:21:03.632Z,-1.63
2022-12-11T15:23:32.351Z,-1.70
2022-12-11T15:26:03.627Z,-1.74
2022-12-11T15:28:35.229Z,-1.73
2022-12-11T15:31:07.318Z,-1.75
2022-12-11T15:33:47.117Z,-1.74
2022-12-11T15:36:25.951Z,-1.80
2022-12-11T15:38:56.233Z,-1.83
2022-12-11T15:41:26.830Z,-1.86
2022-12-11T15:43:59.219Z,-1.90
2022-12-11T15:46:28.227Z,-1.89
2022-12-11T15:48:58.600Z,-1.93
2022-12-11T15:51:27.788Z,-1.91
2022-12-11T15:53:56.668Z,-1.91
2022-12-11T15:56:27.133Z,-1.99
2022-12-11T15:58:56.013Z,-2.00
2022-12-11T16:01:25.221Z,-2.02
2022-12-11T16:03:57.258Z,-2.00
2022-12-11T16:06:28.687Z,-2.00
2022-12-11T16:08:57.094Z,-1.94
2022-12-11T16:11:27.492Z,-1.98
2022-12-11T16:13:56.298Z,-2.07
2022-12-11T16:16:30.946Z,-2.16
2022-12-11T16:18:59.410Z,-2.14
2022-12-11T16:21:27.981Z,-2.13
2022-12-11T16:23:57.177Z,-2.12
2022-12-11T16:26:27.431Z,-2.08
2022-12-11T16:28:56.726Z,-2.03
2022-12-11T16:31:25.387Z,-1.99
2022-12-11T16:33:54.179Z,-1.94
2022-12-11T16:36:23.307Z,-1.95
2022-12-11T16:38:57.675Z,-1.96
2022-12-11T16:41:29.179Z,-1.99
2022-12-11T16:43:58.574Z,-2.02
2022-12-11T16:46:27.522Z,-2.04
2022-12-11T16:48:56.564Z,-2.00
2022-12-11T16:51:26.173Z,-1.97
2022-12-11T16:53:54.949Z,-2.00
2022-12-11T16:59:13.769Z,-2.00
2022-12-11T17:01:42.707Z,-2.03
2022-12-11T17:04:11.902Z,-2.10
2022-12-11T17:06:40.772Z,-2.14
2022-12-11T17:09:13.667Z,-2.14
2022-12-11T17:11:42.311Z,-2.12
2022-12-11T17:14:15.520Z,-2.14
2022-12-11T17:16:44.473Z,-2.17
2022-12-11T17:19:13.396Z,-2.18
2022-12-11T17:21:45.811Z,-2.18
2022-12-11T17:24:17.327Z,-2.13
2022-12-11T17:26:46.279Z,-2.19
2022-12-11T17:29:16.557Z,-2.21
2022-12-11T17:31:45.260Z,-2.27
2022-12-11T17:34:13.746Z,-2.25
2022-12-11T17:36:42.195Z,-2.27
2022-12-11T17:39:10.902Z,-2.26
2022-12-11T17:41:39.324Z,-2.30
2022-12-11T17:44:07.842Z,-2.33
2022-12-11T17:46:38.208Z,-2.33
2022-12-11T17:49:07.077Z,-2.33
2022-12-11T17:51:35.802Z,-2.36
2022-12-11T17:54:04.768Z,-2.35
2022-12-11T17:56:35.053Z,-2.36
2022-12-11T17:59:04.178Z,-2.36
2022-12-11T18:01:33.105Z,-2.32
2022-12-11T18:04:03.572Z,-2.42
2022-12-11T18:06:32.714Z,-2.41
2022-12-11T18:09:01.391Z,-2.42
2022-12-11T18:11:31.877Z,-2.39
2022-12-11T18:14:00.332Z,-2.41
2022-12-11T18:16:31.242Z,-2.43
2022-12-11T18:19:02.672Z,-2.44
2022-12-11T18:21:34.945Z,-2.42
2022-12-11T18:24:04.022Z,-2.44
2022-12-11T18:26:33.308Z,-2.46
2022-12-11T18:29:02.224Z,-2.42
2022-12-11T18:31:35.366Z,-2.47
2022-12-11T18:34:07.551Z,-2.52
2022-12-11T18:36:38.067Z,-2.48
2022-12-11T18:39:07.573Z,-2.54
2022-12-11T18:41:38.341Z,-2.44
2022-12-11T18:44:09.886Z,-2.46
2022-12-11T18:46:40.196Z,-2.47
2022-12-11T18:49:09.117Z,-2.51
2022-12-11T18:52:05.558Z,-2.56
2022-12-11T18:54:34.345Z,-2.57
2022-12-11T18:57:05.696Z,-2.54
2022-12-11T18:59:37.290Z,-2.50
2022-12-11T19:02:08.261Z,-2.50
2022-12-11T19:04:41.758Z,-2.47
2022-12-11T19:07:11.703Z,-2.46
2022-12-11T19:09:44.807Z,-2.48
2022-12-11T19:12:16.376Z,-2.48
2022-12-11T19:14:44.888Z,-2.54
2022-12-11T19:17:13.706Z,-2.53
2022-12-11T19:19:46.448Z,-2.55
2022-12-11T19:22:17.384Z,-2.54
2022-12-11T19:24:46.367Z,-2.57
2022-12-11T19:27:15.765Z,-2.52
2022-12-11T19:29:44.774Z,-2.54
2022-12-11T19:32:13.588Z,-2.53
2022-12-11T19:34:42.324Z,-2.50
2022-12-11T19:37:11.336Z,-2.50
2022-12-11T19:39:41.606Z,-2.49
2022-12-11T19:42:10.258Z,-2.48
2022-12-11T19:44:39.229Z,-2.49
2022-12-11T19:47:10.700Z,-2.48
2022-12-11T19:49:39.849Z,-2.48
2022-12-11T19:52:08.347Z,-2.48
2022-12-11T19:54:37.102Z,-2.52
2022-12-11T19:57:07.188Z,-2.57
2022-12-11T19:59:36.717Z,-2.56
2022-12-11T20:02:08.991Z,-2.62
2022-12-11T20:04:37.527Z,-2.61
2022-12-11T20:07:06.710Z,-2.61
2022-12-11T20:09:35.491Z,-2.56
2022-12-11T20:12:06.369Z,-2.57
2022-12-11T20:14:36.409Z,-2.59
2022-12-11T20:17:12.554Z,-2.56
2022-12-11T20:19:42.481Z,-2.55
2022-12-11T20:22:11.477Z,-2.60
2022-12-11T20:24:40.352Z,-2.69
2022-12-11T20:27:09.669Z,-2.66
2022-12-11T20:29:40.338Z,-2.61
2022-12-11T20:32:11.759Z,-2.60
2022-12-11T20:34:41.427Z,-2.56
2022-12-11T20:37:10.085Z,-2.64
2022-12-11T20:39:39.134Z,-2.64
2022-12-11T20:42:10.899Z,-2.61
2022-12-11T20:44:45.650Z,-2.65
2022-12-11T20:47:19.983Z,-2.70
2022-12-11T20:49:49.213Z,-2.71
2022-12-11T20:52:21.551Z,-2.74
2022-12-11T20:54:50.376Z,-2.76
2022-12-11T20:57:19.101Z,-2.76
2022-12-11T20:59:49.814Z,-2.72
2022-12-11T21:02:18.488Z,-2.71
2022-12-11T21:04:47.541Z,-2.71
2022-12-11T21:07:16.499Z,-2.66
2022-12-11T21:09:46.616Z,-2.62
2022-12-11T21:12:15.648Z,-2.63
2022-12-11T21:14:44.194Z,-2.64
2022-12-11T21:17:14.345Z,-2.64
2022-12-11T21:19:43.276Z,-2.58
2022-12-11T21:22:11.815Z,-2.62
2022-12-11T21:24:41.964Z,-2.64
2022-12-11T21:27:10.916Z,-2.69
2022-12-11T21:29:39.348Z,-2.68
2022-12-11T21:32:08.244Z,-2.65
2022-12-11T21:34:38.718Z,-2.62
2022-12-11T21:37:07.177Z,-2.63
2022-12-11T21:39:39.404Z,-2.63
2022-12-11T21:42:08.179Z,-2.62
2022-12-11T21:47:26.068Z,-2.73
2022-12-11T21:49:55.968Z,-2.81
2022-12-11T21:52:24.377Z,-2.83
2022-12-11T21:54:52.982Z,-2.84
2022-12-11T21:57:26.270Z,-2.79
2022-12-11T21:59:55.694Z,-2.83
2022-12-11T22:02:24.440Z,-2.79
2022-12-11T22:04:52.996Z,-2.78
2022-12-11T22:07:23.140Z,-2.76
2022-12-11T22:09:52.173Z,-2.76
2022-12-11T22:12:23.989Z,-2.83
2022-12-11T22:14:52.796Z,-2.83
2022-12-11T22:17:21.661Z,-2.80
2022-12-11T22:19:52.099Z,-2.76
2022-12-11T22:22:20.879Z,-2.82
2022-12-11T22:24:51.010Z,-2.82
2022-12-11T22:27:23.641Z,-2.77
2022-12-11T22:30:18.259Z,-2.73
2022-12-11T22:32:47.116Z,-2.77
2022-12-11T22:35:16.042Z,-2.82
2022-12-11T22:37:48.829Z,-2.86
2022-12-11T22:40:44.090Z,-2.97
2022-12-11T22:43:12.635Z,-3.07
2022-12-11T22:45:41.798Z,-3.09
2022-12-11T22:48:10.929Z,-3.08
2022-12-11T22:50:39.930Z,-3.10
2022-12-11T22:53:11.083Z,-3.18
2022-12-11T22:55:40.109Z,-3.30
2022-12-11T22:58:10.339Z,-3.35
2022-12-11T23:00:40.145Z,-3.31
2022-12-11T23:03:09.749Z,-3.41
2022-12-11T23:05:43.478Z,-3.47
2022-12-11T23:08:15.008Z,-3.51
2022-12-11T23:10:47.101Z,-3.59
2022-12-11T23:13:17.350Z,-3.65
2022-12-11T23:15:45.830Z,-3.67
2022-12-11T23:18:14.818Z,-3.68
2022-12-11T23:20:46.494Z,-3.65
2022-12-11T23:23:15.111Z,-3.67
2022-12-11T23:25:46.421Z,-3.70
2022-12-11T23:28:16.463Z,-3.72
2022-12-11T23:30:47.265Z,-3.71
2022-12-11T23:33:16.185Z,-3.75
2022-12-11T23:35:46.742Z,-3.70
2022-12-11T23:38:15.675Z,-3.65
2022-12-11T23:40:44.122Z,-3.64
2022-12-11T23:43:17.004Z,-3.63
2022-12-11T23:45:46.400Z,-3.62
2022-12-11T23:48:15.733Z,-3.58
2022-12-11T23:50:44.909Z,-3.59
2022-12-11T23:53:13.645Z,-3.59
2022-12-11T23:55:47.070Z,-3.63
2022-12-11T23:58:16.673Z,-3.62
